createdAt,value
2018-10-17T00:02:19.475Z,13.10
2018-10-17T00:04:47.969Z,13.90
2018-10-17T00:07:16.751Z,13.70
2018-10-17T00:09:45.260Z,14.43
2018-10-17T00:12:13.777Z,16.10
2018-10-17T00:14:42.308Z,15.70
2018-10-17T00:17:10.899Z,15.83
2018-10-17T00:19:39.493Z,15.47
2018-10-17T00:22:08.565Z,14.73
2018-10-17T00:24:37.104Z,15.63
2018-10-17T00:27:06.084Z,15.20
2018-10-17T00:29:34.633Z,15.30
2018-10-17T00:32:03.164Z,14.53
2018-10-17T00:34:31.732Z,15.33
2018-10-17T00:37:00.388Z,14.70
2018-10-17T00:39:29.127Z,15.27
2018-10-17T00:41:57.667Z,14.93
2018-10-17T00:44:26.636Z,14.07
2018-10-17T00:46:55.171Z,15.60
2018-10-17T00:49:23.988Z,14.37
2018-10-17T00:51:53.263Z,13.33
2018-10-17T00:54:21.925Z,15.87
2018-10-17T00:56:50.820Z,14.60
2018-10-17T00:59:19.397Z,13.97
2018-10-17T01:01:47.906Z,13.23
2018-10-17T01:04:16.488Z,13.50
2018-10-17T01:06:45.014Z,13.20
2018-10-17T01:09:14.693Z,13.37
2018-10-17T01:11:43.407Z,13.93
2018-10-17T01:14:12.160Z,14.77
2018-10-17T01:16:40.828Z,14.50
2018-10-17T01:19:10.495Z,14.23
2018-10-17T01:21:39.435Z,15.37
2018-10-17T01:24:08.009Z,13.30
2018-10-17T01:26:36.817Z,14.47
2018-10-17T01:29:05.672Z,14.50
2018-10-17T01:31:34.372Z,14.30
2018-10-17T01:34:03.211Z,13.50
2018-10-17T01:36:32.220Z,13.37
2018-10-17T01:39:00.857Z,13.63
2018-10-17T01:41:30.670Z,13.40
2018-10-17T01:43:59.277Z,14.23
2018-10-17T01:46:27.880Z,13.70
2018-10-17T01:48:56.564Z,13.90
2018-10-17T01:51:25.414Z,13.27
2018-10-17T01:53:54.156Z,13.73
2018-10-17T01:56:22.909Z,13.70
2018-10-17T01:58:52.888Z,13.10
2018-10-17T02:01:21.599Z,13.17
2018-10-17T02:03:50.163Z,13.37
2018-10-17T02:06:18.700Z,13.10
2018-10-17T02:08:47.217Z,13.47
2018-10-17T02:11:15.771Z,12.73
2018-10-17T02:13:44.221Z,14.03
2018-10-17T02:16:12.757Z,12.43
2018-10-17T02:18:41.240Z,14.13
2018-10-17T02:21:09.702Z,13.97
2018-10-17T02:23:38.216Z,12.87
2018-10-17T02:26:07.005Z,13.37
2018-10-17T02:28:35.741Z,12.97
2018-10-17T02:31:04.531Z,13.47
2018-10-17T02:33:33.073Z,13.43
2018-10-17T02:36:01.598Z,13.47
2018-10-17T02:38:30.085Z,12.67
2018-10-17T02:40:58.721Z,13.40
2018-10-17T02:43:27.146Z,13.00
2018-10-17T02:45:55.655Z,13.23
2018-10-17T02:48:24.128Z,13.40
2018-10-17T02:50:52.727Z,13.20
2018-10-17T02:53:21.228Z,12.80
2018-10-17T02:55:49.694Z,12.70
2018-10-17T02:58:18.199Z,14.07
2018-10-17T03:00:46.686Z,13.87
2018-10-17T03:03:15.216Z,14.97
2018-10-17T03:05:43.692Z,13.33
2018-10-17T03:08:12.205Z,14.90
2018-10-17T03:10:40.676Z,14.80
2018-10-17T03:13:09.287Z,14.57
2018-10-17T03:15:37.724Z,13.90
2018-10-17T03:18:06.256Z,15.13
2018-10-17T03:20:34.829Z,14.17
2018-10-17T03:23:03.375Z,14.03
2018-10-17T03:25:31.952Z,14.23
2018-10-17T03:28:00.665Z,13.20
2018-10-17T03:30:29.178Z,13.90
2018-10-17T03:32:57.820Z,13.20
2018-10-17T03:35:26.319Z,15.00
2018-10-17T03:37:54.804Z,14.63
2018-10-17T03:40:23.382Z,13.77
2018-10-17T03:42:51.934Z,14.63
2018-10-17T03:45:20.539Z,14.07
2018-10-17T03:47:49.030Z,14.53
2018-10-17T03:50:17.545Z,14.10
2018-10-17T03:52:46.047Z,13.63
2018-10-17T03:55:14.617Z,14.83
2018-10-17T03:57:43.102Z,14.10
2018-10-17T04:00:11.654Z,13.87
2018-10-17T04:02:40.202Z,13.33
2018-10-17T04:05:08.897Z,13.83
2018-10-17T04:07:37.404Z,14.47
2018-10-17T04:10:06.328Z,14.20
2018-10-17T04:12:34.861Z,14.87
2018-10-17T04:15:03.420Z,13.57
2018-10-17T04:17:31.969Z,14.53
2018-10-17T04:20:00.540Z,15.10
2018-10-17T04:22:29.108Z,16.00
2018-10-17T04:24:57.629Z,15.27
2018-10-17T04:27:26.115Z,14.80
2018-10-17T04:29:55.860Z,16.83
2018-10-17T04:32:24.698Z,14.57
2018-10-17T04:34:53.338Z,15.50
2018-10-17T04:37:21.875Z,14.63
2018-10-17T04:39:50.394Z,14.03
2018-10-17T04:42:20.037Z,14.73
2018-10-17T04:44:48.540Z,14.97
2018-10-17T04:47:17.130Z,14.47
2018-10-17T04:49:45.605Z,14.40
2018-10-17T04:52:14.129Z,14.80
2018-10-17T04:54:43.663Z,14.70
2018-10-17T04:57:12.237Z,17.33
2018-10-17T04:59:40.771Z,16.03
2018-10-17T05:02:09.293Z,15.17
2018-10-17T05:04:37.933Z,15.23
2018-10-17T05:07:06.660Z,15.80
2018-10-17T05:09:35.139Z,16.43
2018-10-17T05:12:03.680Z,15.87
2018-10-17T05:14:32.197Z,15.97
2018-10-17T05:17:00.741Z,15.77
2018-10-17T05:19:29.242Z,16.20
2018-10-17T05:21:57.761Z,15.83
2018-10-17T05:24:26.264Z,19.00
2018-10-17T05:26:54.793Z,16.80
2018-10-17T05:29:23.325Z,14.87
2018-10-17T05:31:51.996Z,15.10
2018-10-17T05:34:20.528Z,15.33
2018-10-17T05:36:49.050Z,15.33
2018-10-17T05:39:17.589Z,15.30
2018-10-17T05:41:46.183Z,14.23
2018-10-17T05:44:14.742Z,14.77
2018-10-17T05:46:43.281Z,15.53
2018-10-17T05:49:11.862Z,15.57
2018-10-17T05:51:40.354Z,16.50
2018-10-17T05:54:08.872Z,14.50
2018-10-17T05:56:37.404Z,15.63
2018-10-17T05:59:06.029Z,15.70
2018-10-17T06:01:34.644Z,15.10
2018-10-17T06:04:03.118Z,16.80
2018-10-17T06:06:32.294Z,16.93
2018-10-17T06:09:00.900Z,16.03
2018-10-17T06:11:29.393Z,16.63
2018-10-17T06:13:58.064Z,15.97
2018-10-17T06:16:26.622Z,15.87
2018-10-17T06:18:55.216Z,16.47
2018-10-17T06:21:23.717Z,16.47
2018-10-17T06:23:52.205Z,15.97
2018-10-17T06:26:20.929Z,17.30
2018-10-17T06:28:49.435Z,16.87
2018-10-17T06:31:18.049Z,16.00
2018-10-17T06:33:46.684Z,16.20
2018-10-17T06:36:15.185Z,16.47
2018-10-17T06:38:43.693Z,18.60
2018-10-17T06:41:12.458Z,20.23
2018-10-17T06:43:40.881Z,18.97
2018-10-17T06:46:09.346Z,23.10
2018-10-17T06:48:37.960Z,22.47
2018-10-17T06:51:08.181Z,27.77
2018-10-17T06:53:37.715Z,29.33
2018-10-17T06:56:06.926Z,28.37
2018-10-17T06:58:35.420Z,29.27
2018-10-17T07:01:04.044Z,27.93
2018-10-17T07:03:33.498Z,25.83
2018-10-17T07:06:02.052Z,26.43
2018-10-17T07:08:30.598Z,25.20
2018-10-17T07:10:59.155Z,22.23
2018-10-17T07:13:27.698Z,20.00
2018-10-17T07:15:56.305Z,19.47
2018-10-17T07:18:25.463Z,19.40
2018-10-17T07:20:54.896Z,17.83
2018-10-17T07:23:24.232Z,16.67
2018-10-17T07:25:53.606Z,16.70
2018-10-17T07:28:22.864Z,15.87
2018-10-17T07:30:53.299Z,16.07
2018-10-17T07:33:22.783Z,16.23
2018-10-17T07:35:52.237Z,17.03
2018-10-17T07:38:21.519Z,16.80
2018-10-17T07:40:51.086Z,16.83
2018-10-17T07:43:19.669Z,16.33
2018-10-17T07:45:48.239Z,17.77
2018-10-17T07:48:16.800Z,16.33
2018-10-17T07:50:45.335Z,18.20
2018-10-17T07:53:13.917Z,17.90
2018-10-17T07:55:42.405Z,18.53
2018-10-17T07:58:10.951Z,20.53
2018-10-17T08:00:39.474Z,20.40
2018-10-17T08:03:07.960Z,21.57
2018-10-17T08:05:36.448Z,20.30
2018-10-17T08:08:05.621Z,20.77
2018-10-17T08:10:34.863Z,21.17
2018-10-17T08:13:03.977Z,21.97
2018-10-17T08:15:33.393Z,23.00
2018-10-17T08:18:08.415Z,22.83
2018-10-17T08:20:41.815Z,23.33
2018-10-17T08:23:11.309Z,23.97
2018-10-17T08:25:39.838Z,21.80
2018-10-17T08:28:08.554Z,23.07
2018-10-17T08:30:37.068Z,24.90
2018-10-17T08:33:06.251Z,25.07
2018-10-17T08:35:34.914Z,23.30
2018-10-17T08:38:03.340Z,23.80
2018-10-17T08:40:31.898Z,23.57
2018-10-17T08:43:00.393Z,24.03
2018-10-17T08:45:28.999Z,23.53
2018-10-17T08:47:57.550Z,24.00
2018-10-17T08:50:26.356Z,24.30
2018-10-17T08:52:55.180Z,24.13
2018-10-17T08:55:24.319Z,25.90
2018-10-17T08:57:53.412Z,25.60
2018-10-17T09:00:22.322Z,25.20
2018-10-17T09:02:51.029Z,25.47
2018-10-17T09:05:20.157Z,23.53
2018-10-17T09:07:48.978Z,25.20
2018-10-17T09:10:17.793Z,24.33
2018-10-17T09:12:46.515Z,24.00
2018-10-17T09:15:15.709Z,23.53
2018-10-17T09:17:44.284Z,21.77
2018-10-17T09:20:13.419Z,22.17
2018-10-17T09:22:42.009Z,22.13
2018-10-17T09:25:10.545Z,21.43
2018-10-17T09:27:39.147Z,20.40
2018-10-17T09:30:08.892Z,19.63
2018-10-17T09:32:37.416Z,20.37
2018-10-17T09:35:06.803Z,19.90
2018-10-17T09:37:35.642Z,19.80
2018-10-17T09:40:04.295Z,20.07
2018-10-17T09:42:33.067Z,19.17
2018-10-17T09:45:01.658Z,20.47
2018-10-17T09:47:30.242Z,18.77
2018-10-17T09:49:58.748Z,19.27
2018-10-17T09:52:27.347Z,18.80
2018-10-17T09:54:55.922Z,17.30
2018-10-17T09:57:24.554Z,17.37
2018-10-17T09:59:53.138Z,17.13
2018-10-17T10:02:21.714Z,15.80
2018-10-17T10:04:50.291Z,17.63
2018-10-17T10:07:18.852Z,16.10
2018-10-17T10:09:47.374Z,15.87
2018-10-17T10:12:16.091Z,16.07
2018-10-17T10:14:44.561Z,15.03
2018-10-17T10:17:14.019Z,14.57
2018-10-17T10:19:42.833Z,14.33
2018-10-17T10:22:11.516Z,12.97
2018-10-17T10:24:39.979Z,13.33
2018-10-17T10:27:08.749Z,13.10
2018-10-17T10:29:37.382Z,13.93
2018-10-17T10:32:06.147Z,12.87
2018-10-17T10:34:34.735Z,11.77
2018-10-17T10:37:04.525Z,12.20
2018-10-17T10:39:33.205Z,12.23
2018-10-17T10:42:01.844Z,11.93
2018-10-17T10:44:30.407Z,11.87
2018-10-17T10:46:58.955Z,10.53
2018-10-17T10:49:27.612Z,10.83
2018-10-17T10:51:56.136Z,11.37
2018-10-17T10:54:24.691Z,10.63
2018-10-17T10:56:53.210Z,10.33
2018-10-17T10:59:21.875Z,10.20
2018-10-17T11:01:50.268Z,10.57
2018-10-17T11:04:18.814Z,10.20
2018-10-17T11:06:48.004Z,10.00
2018-10-17T11:09:16.552Z,9.40
2018-10-17T11:11:45.069Z,9.53
2018-10-17T11:14:13.759Z,9.60
2018-10-17T11:16:42.204Z,8.97
2018-10-17T11:19:10.744Z,9.13
2018-10-17T11:21:39.287Z,9.40
2018-10-17T11:24:07.827Z,8.77
2018-10-17T11:26:37.130Z,9.40
2018-10-17T11:29:06.010Z,8.90
2018-10-17T11:31:34.682Z,9.43
2018-10-17T11:34:03.324Z,9.00
2018-10-17T11:36:31.879Z,8.67
2018-10-17T11:39:00.420Z,9.63
2018-10-17T11:41:29.105Z,8.60
2018-10-17T11:43:57.559Z,8.83
2018-10-17T11:46:26.119Z,10.23
2018-10-17T11:48:54.655Z,8.90
2018-10-17T11:51:23.171Z,9.67
2018-10-17T11:53:51.677Z,8.70
2018-10-17T11:56:20.190Z,8.70
2018-10-17T11:58:48.683Z,9.13
2018-10-17T12:01:17.189Z,8.37
2018-10-17T12:03:45.795Z,8.63
2018-10-17T12:06:14.335Z,8.87
2018-10-17T12:08:42.842Z,8.87
2018-10-17T12:11:11.396Z,9.53
2018-10-17T12:13:39.922Z,8.33
2018-10-17T12:16:08.433Z,7.80
2018-10-17T12:18:37.732Z,7.40
2018-10-17T12:21:06.661Z,7.97
2018-10-17T12:23:35.139Z,7.50
2018-10-17T12:26:03.650Z,8.10
2018-10-17T12:28:32.387Z,7.77
2018-10-17T12:31:01.538Z,7.67
2018-10-17T12:33:30.303Z,8.17
2018-10-17T12:35:58.890Z,7.53
2018-10-17T12:38:27.432Z,8.10
2018-10-17T12:40:56.233Z,7.70
2018-10-17T12:43:24.662Z,7.70
2018-10-17T12:45:53.233Z,7.40
2018-10-17T12:48:21.780Z,7.50
2018-10-17T12:50:50.284Z,7.27
2018-10-17T12:53:18.843Z,7.77
2018-10-17T12:55:47.387Z,7.07
2018-10-17T12:58:15.925Z,6.80
2018-10-17T13:00:44.451Z,7.77
2018-10-17T13:03:12.992Z,7.70
2018-10-17T13:05:41.539Z,7.50
2018-10-17T13:08:10.088Z,7.53
2018-10-17T13:10:39.068Z,7.60
2018-10-17T13:13:07.667Z,7.03
2018-10-17T13:15:36.162Z,7.77
2018-10-17T13:18:05.595Z,7.50
2018-10-17T13:20:35.411Z,7.47
2018-10-17T13:23:03.963Z,7.50
2018-10-17T13:25:32.497Z,7.77
2018-10-17T13:28:01.031Z,7.60
2018-10-17T13:30:29.540Z,7.40
2018-10-17T13:32:58.099Z,7.63
2018-10-17T13:35:26.698Z,7.70
2018-10-17T13:37:55.173Z,7.90
2018-10-17T13:40:23.728Z,8.37
2018-10-17T13:42:52.329Z,7.60
2018-10-17T13:45:20.842Z,7.10
2018-10-17T13:47:49.387Z,7.53
2018-10-17T13:50:17.911Z,7.90
2018-10-17T13:52:46.443Z,7.23
2018-10-17T13:55:15.056Z,7.43
2018-10-17T13:57:43.599Z,8.37
2018-10-17T14:00:13.220Z,7.37
2018-10-17T14:02:43.241Z,7.10
2018-10-17T14:05:11.910Z,7.70
2018-10-17T14:07:40.493Z,7.83
2018-10-17T14:10:09.078Z,7.30
2018-10-17T14:12:37.655Z,7.33
2018-10-17T14:15:06.450Z,7.67
2018-10-17T14:17:35.027Z,7.23
2018-10-17T14:20:03.973Z,7.70
2018-10-17T14:22:32.522Z,8.13
2018-10-17T14:25:01.103Z,7.63
2018-10-17T14:27:29.693Z,8.13
2018-10-17T14:29:58.272Z,7.60
2018-10-17T14:32:26.864Z,7.97
2018-10-17T14:34:55.344Z,8.20
2018-10-17T14:37:25.557Z,7.83
2018-10-17T14:39:54.156Z,7.80
2018-10-17T14:42:22.777Z,7.93
2018-10-17T14:44:51.292Z,7.83
2018-10-17T14:47:20.901Z,7.37
2018-10-17T14:49:49.570Z,8.03
2018-10-17T14:52:18.118Z,7.37
2018-10-17T14:54:46.655Z,7.97
2018-10-17T14:57:15.246Z,8.03
2018-10-17T14:59:43.757Z,8.73
2018-10-17T15:02:12.300Z,8.90
2018-10-17T15:04:40.891Z,9.23
2018-10-17T15:07:09.414Z,8.00
2018-10-17T15:09:38.005Z,9.13
2018-10-17T15:12:06.719Z,8.73
2018-10-17T15:14:35.141Z,8.30
2018-10-17T15:17:03.697Z,9.10
2018-10-17T15:19:32.262Z,8.73
2018-10-17T15:22:00.844Z,9.03
2018-10-17T15:24:29.401Z,9.30
2018-10-17T15:26:58.007Z,9.00
2018-10-17T15:29:26.495Z,8.47
2018-10-17T15:31:55.095Z,8.43
2018-10-17T15:34:23.553Z,9.00
2018-10-17T15:36:52.233Z,9.20
2018-10-17T15:39:20.735Z,8.60
2018-10-17T15:41:49.386Z,8.87
2018-10-17T15:44:17.957Z,8.80
2018-10-17T15:46:46.508Z,8.97
2018-10-17T15:49:15.111Z,9.33
2018-10-17T15:51:43.829Z,10.23
2018-10-17T15:54:12.409Z,9.53
2018-10-17T15:56:40.997Z,9.83
2018-10-17T15:59:09.670Z,9.20
2018-10-17T16:01:38.220Z,10.60
2018-10-17T16:04:07.812Z,10.20
2018-10-17T16:06:39.359Z,11.47
2018-10-17T16:09:10.619Z,10.90
2018-10-17T16:11:39.388Z,11.23
2018-10-17T16:14:07.939Z,10.80
2018-10-17T16:16:36.527Z,10.77
2018-10-17T16:19:05.918Z,12.00
2018-10-17T16:21:34.910Z,11.33
2018-10-17T16:24:03.602Z,11.67
2018-10-17T16:26:32.550Z,12.10
2018-10-17T16:29:01.579Z,11.47
2018-10-17T16:31:30.230Z,12.50
2018-10-17T16:33:58.948Z,12.00
2018-10-17T16:36:27.534Z,11.30
2018-10-17T16:39:01.727Z,12.20
2018-10-17T16:41:30.338Z,12.07
2018-10-17T16:43:58.781Z,12.20
2018-10-17T16:46:27.340Z,11.87
2018-10-17T16:48:55.983Z,11.53
2018-10-17T16:51:24.494Z,13.03
2018-10-17T16:53:53.063Z,13.27
2018-10-17T16:56:21.587Z,12.83
2018-10-17T16:58:50.143Z,12.50
2018-10-17T17:01:18.688Z,13.47
2018-10-17T17:03:47.232Z,14.20
2018-10-17T17:06:15.856Z,19.67
2018-10-17T17:08:44.384Z,28.43
2018-10-17T17:11:13.029Z,32.33
2018-10-17T17:13:41.584Z,33.13
2018-10-17T17:16:10.688Z,34.00
2018-10-17T17:18:39.206Z,35.70
2018-10-17T17:21:07.746Z,35.77
2018-10-17T17:23:36.259Z,37.70
2018-10-17T17:26:04.788Z,37.80
2018-10-17T17:28:33.331Z,38.73
2018-10-17T17:31:01.849Z,42.33
2018-10-17T17:33:30.406Z,44.87
2018-10-17T17:35:58.965Z,45.63
2018-10-17T17:38:27.505Z,44.97
2018-10-17T17:40:57.136Z,45.60
2018-10-17T17:43:25.681Z,47.23
2018-10-17T17:45:54.264Z,48.37
2018-10-17T17:48:22.814Z,50.23
2018-10-17T17:50:51.329Z,52.70
2018-10-17T17:53:20.175Z,50.07
2018-10-17T17:55:48.716Z,50.60
2018-10-17T17:58:17.338Z,50.70
2018-10-17T18:00:45.901Z,52.97
2018-10-17T18:03:14.379Z,50.80
2018-10-17T18:05:42.948Z,51.03
2018-10-17T18:08:11.735Z,52.80
2018-10-17T18:10:40.266Z,53.23
2018-10-17T18:13:08.847Z,54.27
2018-10-17T18:15:37.394Z,54.43
2018-10-17T18:18:05.968Z,52.40
2018-10-17T18:20:34.508Z,53.53
2018-10-17T18:23:03.042Z,53.53
2018-10-17T18:25:32.230Z,52.00
2018-10-17T18:28:01.459Z,51.73
2018-10-17T18:30:30.051Z,52.73
2018-10-17T18:32:58.604Z,51.97
2018-10-17T18:35:27.926Z,50.33
2018-10-17T18:37:56.465Z,50.40
2018-10-17T18:40:25.026Z,52.50
2018-10-17T18:42:53.560Z,53.20
2018-10-17T18:45:22.197Z,53.50
2018-10-17T18:47:50.711Z,50.83
2018-10-17T18:50:19.276Z,52.20
2018-10-17T18:52:47.917Z,52.63
2018-10-17T18:55:17.016Z,53.37
2018-10-17T18:57:45.543Z,54.43
2018-10-17T19:00:14.101Z,53.53
2018-10-17T19:02:42.605Z,53.03
2018-10-17T19:05:11.175Z,52.57
2018-10-17T19:07:39.728Z,52.43
2018-10-17T19:10:08.323Z,52.90
2018-10-17T19:12:36.842Z,54.27
2018-10-17T19:15:06.877Z,53.47
2018-10-17T19:17:36.014Z,53.53
2018-10-17T19:20:04.953Z,52.77
2018-10-17T19:22:33.804Z,55.20
2018-10-17T19:25:02.342Z,53.87
2018-10-17T19:27:30.836Z,54.13
2018-10-17T19:29:59.423Z,53.37
2018-10-17T19:32:27.930Z,54.67
2018-10-17T19:34:57.522Z,52.90
2018-10-17T19:37:26.031Z,54.60
2018-10-17T19:39:54.603Z,52.57
2018-10-17T19:42:23.144Z,53.07
2018-10-17T19:44:51.744Z,54.40
2018-10-17T19:47:20.289Z,53.93
2018-10-17T19:49:49.550Z,53.27
2018-10-17T19:52:18.439Z,54.97
2018-10-17T19:54:46.988Z,53.50
2018-10-17T19:57:15.594Z,55.50
2018-10-17T19:59:44.350Z,55.37
2018-10-17T20:02:12.958Z,55.93
2018-10-17T20:04:41.550Z,53.00
2018-10-17T20:07:10.074Z,55.60
2018-10-17T20:09:38.639Z,53.00
2018-10-17T20:12:07.260Z,54.77
2018-10-17T20:14:35.801Z,56.60
2018-10-17T20:17:04.312Z,55.17
2018-10-17T20:19:32.820Z,55.67
2018-10-17T20:22:01.324Z,56.20
2018-10-17T20:24:29.835Z,54.63
2018-10-17T20:26:58.408Z,54.83
2018-10-17T20:29:26.917Z,57.07
2018-10-17T20:31:55.625Z,58.30
2018-10-17T20:34:24.207Z,57.50
2018-10-17T20:36:52.800Z,59.77
2018-10-17T20:39:21.404Z,57.47
2018-10-17T20:41:49.995Z,57.23
2018-10-17T20:44:18.559Z,59.67
2018-10-17T20:46:47.143Z,60.33
2018-10-17T20:49:15.637Z,59.93
2018-10-17T20:51:44.181Z,62.27
2018-10-17T20:54:12.718Z,61.03
2018-10-17T20:56:41.331Z,62.83
2018-10-17T20:59:09.876Z,61.33
2018-10-17T21:01:38.359Z,62.50
2018-10-17T21:04:06.727Z,62.83
2018-10-17T21:06:35.247Z,66.33
2018-10-17T21:09:04.852Z,61.43
2018-10-17T21:11:33.451Z,63.73
2018-10-17T21:14:01.967Z,65.63
2018-10-17T21:16:30.590Z,65.47
2018-10-17T21:18:59.145Z,62.60
2018-10-17T21:21:27.674Z,63.90
2018-10-17T21:23:56.241Z,61.43
2018-10-17T21:26:24.838Z,57.53
2018-10-17T21:28:53.369Z,58.93
2018-10-17T21:31:21.928Z,61.40
2018-10-17T21:33:50.905Z,58.33
2018-10-17T21:36:20.740Z,59.50
2018-10-17T21:38:49.699Z,61.97
2018-10-17T21:41:18.303Z,60.13
2018-10-17T21:43:47.424Z,60.20
2018-10-17T21:46:15.971Z,61.67
2018-10-17T21:48:44.698Z,59.03
2018-10-17T21:51:13.623Z,59.20
2018-10-17T21:53:42.197Z,60.13
2018-10-17T21:56:10.786Z,57.10
2018-10-17T21:58:39.300Z,54.77
2018-10-17T22:01:08.055Z,55.60
2018-10-17T22:03:36.611Z,53.13
2018-10-17T22:06:05.281Z,53.50
2018-10-17T22:08:33.813Z,51.87
2018-10-17T22:11:02.357Z,51.17
2018-10-17T22:13:30.971Z,52.83
2018-10-17T22:16:00.177Z,48.87
2018-10-17T22:18:28.843Z,49.70
2018-10-17T22:20:57.365Z,51.30
2018-10-17T22:23:25.909Z,50.63
2018-10-17T22:25:54.461Z,49.77
2018-10-17T22:28:24.023Z,50.93
2018-10-17T22:30:52.633Z,50.83
2018-10-17T22:33:22.574Z,50.47
2018-10-17T22:35:51.304Z,51.17
2018-10-17T22:38:19.986Z,49.80
2018-10-17T22:40:48.579Z,50.23
2018-10-17T22:43:18.089Z,51.13
2018-10-17T22:45:46.812Z,50.57
2018-10-17T22:48:16.170Z,53.33
2018-10-17T22:50:44.735Z,49.97
2018-10-17T22:53:13.290Z,49.10
2018-10-17T22:55:41.965Z,48.17
2018-10-17T22:58:11.079Z,48.70
2018-10-17T23:00:39.666Z,48.63
2018-10-17T23:03:08.208Z,49.13
2018-10-17T23:05:38.017Z,48.07
2018-10-17T23:08:06.735Z,50.50
2018-10-17T23:10:35.410Z,50.43
2018-10-17T23:13:04.674Z,49.60
2018-10-17T23:15:33.239Z,47.77
2018-10-17T23:18:02.491Z,48.17
2018-10-17T23:20:31.102Z,47.83
2018-10-17T23:23:00.715Z,47.20
2018-10-17T23:25:29.360Z,49.13
2018-10-17T23:27:57.975Z,48.13
2018-10-17T23:30:26.582Z,46.33
2018-10-17T23:32:55.298Z,47.97
2018-10-17T23:35:23.995Z,46.57
2018-10-17T23:37:52.533Z,47.03
2018-10-17T23:40:21.727Z,48.40
2018-10-17T23:42:50.259Z,47.67
2018-10-17T23:45:18.852Z,50.57
2018-10-17T23:47:47.396Z,48.87
2018-10-17T23:50:16.158Z,50.10
2018-10-17T23:52:45.693Z,53.07
2018-10-17T23:55:14.753Z,51.70
2018-10-17T23:57:43.795Z,51.60
